createdAt,value
2022-10-22T00:02:21.287Z,8.23
2022-10-22T00:04:52.281Z,8.36
2022-10-22T00:07:22.166Z,8.32
2022-10-22T00:09:51.915Z,8.27
2022-10-22T00:12:22.155Z,8.21
2022-10-22T00:14:52.069Z,8.10
2022-10-22T00:17:22.180Z,8.08
2022-10-22T00:19:53.113Z,7.90
2022-10-22T00:22:22.588Z,7.82
2022-10-22T00:24:52.231Z,7.74
2022-10-22T00:27:21.774Z,7.89
2022-10-22T00:29:51.357Z,7.90
2022-10-22T00:32:20.879Z,7.72
2022-10-22T00:34:50.449Z,7.62
2022-10-22T00:37:21.343Z,7.48
2022-10-22T00:39:50.877Z,7.30
2022-10-22T00:42:22.160Z,7.53
2022-10-22T00:45:09.559Z,7.50
2022-10-22T00:47:40.179Z,7.28
2022-10-22T00:50:12.003Z,7.37
2022-10-22T00:52:43.400Z,7.21
2022-10-22T00:55:13.911Z,7.14
2022-10-22T00:57:43.795Z,7.29
2022-10-22T01:00:13.898Z,7.32
2022-10-22T01:02:43.833Z,7.32
2022-10-22T01:05:13.388Z,7.15
2022-10-22T01:07:46.226Z,7.20
2022-10-22T01:10:26.130Z,7.13
2022-10-22T01:13:00.574Z,7.11
2022-10-22T01:15:34.075Z,7.14
2022-10-22T01:18:06.562Z,6.98
2022-10-22T01:21:03.248Z,7.04
2022-10-22T01:23:57.806Z,7.01
2022-10-22T01:26:30.321Z,7.07
2022-10-22T01:29:02.580Z,7.08
2022-10-22T01:31:34.864Z,6.97
2022-10-22T01:34:04.681Z,7.06
2022-10-22T01:36:36.055Z,7.08
2022-10-22T01:39:06.740Z,6.71
2022-10-22T01:41:36.863Z,6.65
2022-10-22T01:44:07.878Z,6.57
2022-10-22T01:46:38.343Z,6.52
2022-10-22T01:49:16.989Z,6.40
2022-10-22T01:51:54.226Z,6.56
2022-10-22T01:54:28.632Z,6.37
2022-10-22T01:57:06.718Z,6.63
2022-10-22T01:59:43.971Z,6.67
2022-10-22T02:02:19.396Z,6.80
2022-10-22T02:04:50.692Z,6.88
2022-10-22T02:07:27.070Z,6.61
2022-10-22T02:09:57.356Z,6.80
2022-10-22T02:12:30.409Z,6.92
2022-10-22T02:15:03.813Z,6.92
2022-10-22T02:17:34.260Z,6.83
2022-10-22T02:20:07.133Z,6.94
2022-10-22T02:22:37.520Z,6.94
2022-10-22T02:25:07.998Z,6.88
2022-10-22T02:27:40.078Z,6.90
2022-10-22T02:30:12.602Z,6.73
2022-10-22T02:32:44.410Z,6.84
2022-10-22T02:35:16.230Z,6.77
2022-10-22T02:37:46.186Z,6.77
2022-10-22T02:40:15.702Z,6.80
2022-10-22T02:42:47.707Z,6.83
2022-10-22T02:45:19.748Z,6.88
2022-10-22T02:47:49.261Z,6.80
2022-10-22T02:50:19.002Z,6.79
2022-10-22T02:52:48.491Z,6.71
2022-10-22T02:55:18.223Z,6.48
2022-10-22T02:57:47.691Z,6.21
2022-10-22T03:00:19.058Z,6.45
2022-10-22T03:02:48.631Z,6.55
2022-10-22T03:05:18.249Z,6.53
2022-10-22T03:07:47.730Z,6.22
2022-10-22T03:10:17.197Z,6.28
2022-10-22T03:12:48.337Z,6.20
2022-10-22T03:15:19.697Z,6.03
2022-10-22T03:17:49.642Z,6.07
2022-10-22T03:20:19.197Z,6.32
2022-10-22T03:22:48.798Z,6.26
2022-10-22T03:25:20.730Z,5.98
2022-10-22T03:27:51.102Z,5.94
2022-10-22T03:30:22.219Z,6.11
2022-10-22T03:32:51.725Z,6.05
2022-10-22T03:35:21.237Z,6.10
2022-10-22T03:37:51.483Z,6.25
2022-10-22T03:40:21.525Z,6.29
2022-10-22T03:42:51.010Z,6.12
2022-10-22T03:45:20.490Z,6.24
2022-10-22T03:47:51.504Z,6.28
2022-10-22T03:50:21.037Z,6.20
2022-10-22T03:52:50.503Z,6.06
2022-10-22T03:55:20.126Z,6.10
2022-10-22T03:57:49.611Z,6.05
2022-10-22T04:00:19.607Z,5.68
2022-10-22T04:02:49.104Z,5.83
2022-10-22T04:05:20.219Z,5.94
2022-10-22T04:07:49.821Z,5.89
2022-10-22T04:10:19.427Z,6.13
2022-10-22T04:12:49.636Z,6.02
2022-10-22T04:15:19.645Z,6.06
2022-10-22T04:17:49.298Z,6.20
2022-10-22T04:20:20.251Z,6.32
2022-10-22T04:22:49.771Z,6.29
2022-10-22T04:25:19.313Z,6.27
2022-10-22T04:27:48.815Z,6.09
2022-10-22T04:30:18.455Z,6.07
2022-10-22T04:32:48.162Z,6.04
2022-10-22T04:35:17.861Z,6.22
2022-10-22T04:37:48.765Z,6.17
2022-10-22T04:40:18.332Z,6.05
2022-10-22T04:42:47.870Z,6.14
2022-10-22T04:45:17.407Z,6.16
2022-10-22T04:47:48.449Z,6.11
2022-10-22T04:50:18.414Z,6.14
2022-10-22T04:52:49.249Z,6.09
2022-10-22T04:55:18.981Z,5.95
2022-10-22T04:57:48.491Z,5.88
2022-10-22T05:00:18.196Z,5.93
2022-10-22T05:02:50.173Z,5.99
2022-10-22T05:05:19.706Z,6.09
2022-10-22T05:07:51.875Z,6.00
2022-10-22T05:10:21.396Z,5.93
2022-10-22T05:12:51.566Z,5.83
2022-10-22T05:15:21.705Z,6.10
2022-10-22T05:17:51.221Z,6.05
2022-10-22T05:20:20.723Z,6.03
2022-10-22T05:22:51.603Z,6.19
2022-10-22T05:25:21.332Z,6.23
2022-10-22T05:27:51.572Z,6.27
2022-10-22T05:30:21.138Z,6.23
2022-10-22T05:32:52.264Z,6.15
2022-10-22T05:35:22.318Z,5.89
2022-10-22T05:37:53.233Z,5.98
2022-10-22T05:40:30.534Z,6.23
2022-10-22T05:43:00.814Z,6.36
2022-10-22T05:45:30.334Z,6.23
2022-10-22T05:48:00.171Z,6.15
2022-10-22T05:50:29.725Z,6.48
2022-10-22T05:53:00.678Z,6.65
2022-10-22T05:55:30.175Z,6.54
2022-10-22T05:57:59.835Z,6.35
2022-10-22T06:00:29.491Z,6.64
2022-10-22T06:02:59.006Z,6.76
2022-10-22T06:05:28.614Z,6.92
2022-10-22T06:07:58.930Z,6.89
2022-10-22T06:10:30.288Z,7.00
2022-10-22T06:13:01.572Z,6.96
2022-10-22T06:15:31.699Z,7.05
2022-10-22T06:18:01.223Z,7.21
2022-10-22T06:20:30.918Z,7.32
2022-10-22T06:23:01.850Z,7.40
2022-10-22T06:25:32.800Z,7.61
2022-10-22T06:28:02.352Z,7.78
2022-10-22T06:30:32.004Z,7.82
2022-10-22T06:33:01.508Z,7.94
2022-10-22T06:35:31.010Z,8.03
2022-10-22T06:38:00.423Z,8.08
2022-10-22T06:40:29.966Z,8.18
2022-10-22T06:43:01.486Z,8.21
2022-10-22T06:45:30.926Z,8.26
2022-10-22T06:48:01.139Z,8.42
2022-10-22T06:50:30.718Z,8.28
2022-10-22T06:53:00.264Z,8.43
2022-10-22T06:55:29.978Z,8.42
2022-10-22T06:58:00.993Z,8.40
2022-10-22T07:00:30.879Z,8.48
2022-10-22T07:03:00.411Z,8.58
2022-10-22T07:05:29.976Z,8.59
2022-10-22T07:07:59.483Z,8.71
2022-10-22T07:10:30.682Z,8.74
2022-10-22T07:13:02.687Z,8.98
2022-10-22T07:15:32.816Z,9.11
2022-10-22T07:18:04.691Z,9.18
2022-10-22T07:20:34.239Z,9.34
2022-10-22T07:23:03.775Z,9.45
2022-10-22T07:25:33.315Z,9.43
2022-10-22T07:28:04.517Z,9.60
2022-10-22T07:30:34.162Z,9.78
2022-10-22T07:33:03.741Z,9.87
2022-10-22T07:35:34.479Z,10.03
2022-10-22T07:38:04.316Z,10.14
2022-10-22T07:40:34.016Z,10.28
2022-10-22T07:43:05.671Z,10.45
2022-10-22T07:45:35.275Z,10.43
2022-10-22T07:48:04.972Z,10.61
2022-10-22T07:50:34.542Z,10.75
2022-10-22T07:53:04.107Z,10.92
2022-10-22T07:55:33.777Z,10.86
2022-10-22T07:58:04.927Z,11.07
2022-10-22T08:00:34.665Z,11.20
2022-10-22T08:03:04.454Z,11.27
2022-10-22T08:05:34.255Z,11.36
2022-10-22T08:08:03.851Z,11.50
2022-10-22T08:10:33.509Z,11.56
2022-10-22T08:13:05.301Z,11.68
2022-10-22T08:15:35.718Z,11.82
2022-10-22T08:18:05.580Z,11.89
2022-10-22T08:20:35.180Z,11.98
2022-10-22T08:23:04.830Z,12.01
2022-10-22T08:25:34.807Z,11.88
2022-10-22T08:28:05.748Z,12.03
2022-10-22T08:30:37.942Z,12.17
2022-10-22T08:33:07.632Z,12.23
2022-10-22T08:35:37.225Z,12.28
2022-10-22T08:38:06.854Z,12.33
2022-10-22T08:40:39.406Z,12.43
2022-10-22T08:43:35.972Z,12.49
2022-10-22T08:46:12.072Z,12.55
2022-10-22T08:48:46.937Z,12.48
2022-10-22T08:51:17.647Z,12.56
2022-10-22T08:53:55.099Z,12.64
2022-10-22T08:56:24.775Z,12.69
2022-10-22T08:58:57.036Z,12.72
2022-10-22T09:01:33.488Z,12.78
2022-10-22T09:04:05.744Z,12.84
2022-10-22T09:06:36.858Z,12.87
2022-10-22T09:09:11.662Z,12.94
2022-10-22T09:11:44.571Z,12.95
2022-10-22T09:14:16.957Z,13.04
2022-10-22T09:17:10.408Z,13.00
2022-10-22T09:19:44.179Z,13.09
2022-10-22T09:22:21.743Z,13.12
2022-10-22T09:24:55.397Z,13.17
2022-10-22T09:27:28.569Z,13.24
2022-10-22T09:29:58.580Z,13.22
2022-10-22T09:32:30.085Z,13.30
2022-10-22T09:34:59.711Z,13.37
2022-10-22T09:37:30.439Z,13.47
2022-10-22T09:40:04.740Z,13.55
2022-10-22T09:42:35.281Z,13.62
2022-10-22T09:45:05.097Z,13.68
2022-10-22T09:48:00.976Z,13.65
2022-10-22T09:50:29.450Z,13.68
2022-10-22T09:53:00.235Z,13.81
2022-10-22T09:55:29.887Z,13.85
2022-10-22T09:58:00.577Z,13.90
2022-10-22T10:00:30.809Z,13.97
2022-10-22T10:03:01.912Z,14.07
2022-10-22T10:05:32.342Z,14.14
2022-10-22T10:08:06.921Z,14.20
2022-10-22T10:10:43.031Z,14.27
2022-10-22T10:13:19.479Z,14.30
2022-10-22T10:15:52.891Z,14.38
2022-10-22T10:18:30.326Z,14.39
2022-10-22T10:21:06.049Z,14.43
2022-10-22T10:23:46.283Z,14.54
2022-10-22T10:26:19.251Z,14.54
2022-10-22T10:28:56.909Z,14.53
2022-10-22T10:31:32.977Z,14.56
2022-10-22T10:34:07.425Z,14.63
2022-10-22T10:36:40.959Z,14.75
2022-10-22T10:39:12.470Z,14.74
2022-10-22T10:41:52.633Z,14.74
2022-10-22T10:44:38.626Z,14.82
2022-10-22T10:47:14.032Z,15.01
2022-10-22T10:49:45.215Z,15.04
2022-10-22T10:52:21.353Z,15.02
2022-10-22T10:54:55.699Z,15.17
2022-10-22T10:57:33.103Z,15.15
2022-10-22T11:00:05.391Z,15.23
2022-10-22T11:02:50.344Z,15.26
2022-10-22T11:05:28.315Z,15.23
2022-10-22T11:08:00.984Z,15.25
2022-10-22T11:10:33.069Z,15.24
2022-10-22T11:13:06.911Z,15.31
2022-10-22T11:15:38.618Z,15.39
2022-10-22T11:18:13.885Z,15.44
2022-10-22T11:20:50.038Z,15.56
2022-10-22T11:23:24.565Z,15.51
2022-10-22T11:25:54.423Z,15.53
2022-10-22T11:28:26.888Z,15.49
2022-10-22T11:30:59.399Z,15.41
2022-10-22T11:33:34.044Z,15.57
2022-10-22T11:36:06.976Z,15.51
2022-10-22T11:38:37.041Z,15.60
2022-10-22T11:41:08.038Z,15.67
2022-10-22T11:43:53.546Z,15.60
2022-10-22T11:46:28.114Z,15.63
2022-10-22T11:49:06.525Z,15.54
2022-10-22T11:51:38.762Z,15.47
2022-10-22T11:54:29.515Z,15.42
2022-10-22T11:57:13.998Z,15.64
2022-10-22T11:59:49.646Z,15.57
2022-10-22T12:02:36.897Z,15.63
2022-10-22T12:05:24.942Z,15.60
2022-10-22T12:07:58.413Z,15.59
2022-10-22T12:10:29.439Z,15.61
2022-10-22T12:13:03.940Z,15.45
2022-10-22T12:15:34.270Z,15.58
2022-10-22T12:18:06.614Z,15.90
2022-10-22T12:20:36.203Z,15.86
2022-10-22T12:23:07.582Z,15.67
2022-10-22T12:25:38.117Z,15.61
2022-10-22T12:28:12.528Z,15.61
2022-10-22T12:30:42.047Z,15.69
2022-10-22T12:33:19.113Z,15.67
2022-10-22T12:35:52.888Z,15.77
2022-10-22T12:38:25.518Z,15.80
2022-10-22T12:40:56.353Z,15.82
2022-10-22T12:43:26.521Z,15.74
2022-10-22T12:45:57.705Z,15.75
2022-10-22T12:48:29.382Z,15.73
2022-10-22T12:51:00.410Z,15.71
2022-10-22T12:53:32.984Z,15.74
2022-10-22T12:56:03.635Z,15.77
2022-10-22T12:58:35.303Z,15.80
2022-10-22T13:01:05.592Z,15.84
2022-10-22T13:03:38.334Z,16.09
2022-10-22T13:06:14.482Z,16.03
2022-10-22T13:08:45.951Z,15.88
2022-10-22T13:11:21.542Z,15.83
2022-10-22T13:13:51.576Z,15.74
2022-10-22T13:16:24.302Z,15.87
2022-10-22T13:18:54.997Z,15.80
2022-10-22T13:21:29.697Z,15.73
2022-10-22T13:24:01.972Z,15.73
2022-10-22T13:26:33.306Z,15.71
2022-10-22T13:29:03.936Z,15.77
2022-10-22T13:31:34.065Z,15.69
2022-10-22T13:34:09.805Z,15.72
2022-10-22T13:36:41.303Z,15.73
2022-10-22T13:39:17.461Z,15.70
2022-10-22T13:41:47.317Z,15.63
2022-10-22T13:44:16.822Z,15.57
2022-10-22T13:46:46.586Z,15.50
2022-10-22T13:49:18.170Z,15.56
2022-10-22T13:51:48.252Z,15.59
2022-10-22T13:54:20.680Z,15.58
2022-10-22T13:56:50.363Z,15.55
2022-10-22T13:59:22.912Z,15.60
2022-10-22T14:01:54.836Z,15.62
2022-10-22T14:04:24.402Z,15.58
2022-10-22T14:06:53.899Z,15.63
2022-10-22T14:09:24.763Z,15.60
2022-10-22T14:11:54.849Z,15.48
2022-10-22T14:14:24.772Z,15.46
2022-10-22T14:16:55.060Z,15.48
2022-10-22T14:19:24.586Z,15.58
2022-10-22T14:21:54.129Z,15.49
2022-10-22T14:24:25.034Z,15.46
2022-10-22T14:26:54.493Z,15.45
2022-10-22T14:29:23.989Z,15.42
2022-10-22T14:31:53.585Z,15.40
2022-10-22T14:34:23.095Z,15.36
2022-10-22T14:36:52.566Z,15.35
2022-10-22T14:39:22.831Z,15.38
2022-10-22T14:41:53.727Z,15.38
2022-10-22T14:44:24.311Z,15.37
2022-10-22T14:46:56.243Z,15.45
2022-10-22T14:49:26.099Z,15.44
2022-10-22T14:51:55.554Z,15.37
2022-10-22T14:54:25.049Z,15.35
2022-10-22T14:56:55.888Z,15.29
2022-10-22T14:59:25.858Z,15.25
2022-10-22T15:01:55.369Z,15.18
2022-10-22T15:04:25.985Z,15.17
2022-10-22T15:06:56.678Z,15.12
2022-10-22T15:09:26.158Z,15.15
2022-10-22T15:11:57.682Z,15.11
2022-10-22T15:14:27.582Z,15.14
2022-10-22T15:16:57.694Z,15.06
2022-10-22T15:19:27.502Z,15.02
2022-10-22T15:21:56.992Z,14.95
2022-10-22T15:24:26.618Z,14.91
2022-10-22T15:26:57.545Z,14.87
2022-10-22T15:29:27.099Z,14.82
2022-10-22T15:31:58.250Z,14.75
2022-10-22T15:34:29.138Z,14.70
2022-10-22T15:36:59.755Z,14.63
2022-10-22T15:39:29.824Z,14.59
2022-10-22T15:42:00.874Z,14.56
2022-10-22T15:44:31.635Z,14.50
2022-10-22T15:47:02.220Z,14.47
2022-10-22T15:49:37.940Z,14.41
2022-10-22T15:52:08.927Z,14.35
2022-10-22T15:54:39.035Z,14.26
2022-10-22T15:57:10.833Z,14.22
2022-10-22T15:59:40.394Z,14.17
2022-10-22T16:02:10.783Z,14.15
2022-10-22T16:04:40.381Z,14.06
2022-10-22T16:07:10.127Z,14.01
2022-10-22T16:09:39.652Z,13.96
2022-10-22T16:12:13.167Z,13.93
2022-10-22T16:14:45.311Z,13.86
2022-10-22T16:17:16.283Z,13.82
2022-10-22T16:19:46.105Z,13.79
2022-10-22T16:22:15.800Z,13.73
2022-10-22T16:24:45.421Z,13.70
2022-10-22T16:27:16.318Z,13.67
2022-10-22T16:29:45.851Z,13.66
2022-10-22T16:32:16.437Z,13.58
2022-10-22T16:34:46.020Z,13.58
2022-10-22T16:37:15.606Z,13.53
2022-10-22T16:39:45.178Z,13.53
2022-10-22T16:42:16.072Z,13.50
2022-10-22T16:44:45.596Z,13.47
2022-10-22T16:47:15.208Z,13.41
2022-10-22T16:49:46.028Z,13.37
2022-10-22T16:52:15.601Z,13.34
2022-10-22T16:54:46.775Z,13.36
2022-10-22T16:57:17.947Z,13.33
2022-10-22T16:59:49.913Z,13.31
2022-10-22T17:02:19.588Z,13.28
2022-10-22T17:04:51.519Z,13.28
2022-10-22T17:07:21.099Z,13.25
2022-10-22T17:09:50.622Z,13.22
2022-10-22T17:12:22.403Z,13.16
2022-10-22T17:14:52.389Z,13.14
2022-10-22T17:17:22.957Z,13.11
2022-10-22T17:19:52.714Z,13.07
2022-10-22T17:22:22.320Z,13.06
2022-10-22T17:25:07.894Z,13.06
2022-10-22T17:27:39.425Z,13.03
2022-10-22T17:30:10.160Z,13.00
2022-10-22T17:32:40.077Z,12.97
2022-10-22T17:35:09.961Z,12.97
2022-10-22T17:37:40.239Z,12.98
2022-10-22T17:40:10.530Z,13.03
2022-10-22T17:42:41.690Z,13.01
2022-10-22T17:45:11.375Z,12.95
2022-10-22T17:47:41.237Z,12.90
2022-10-22T17:50:12.297Z,12.86
2022-10-22T17:52:42.965Z,12.82
2022-10-22T17:55:13.491Z,12.75
2022-10-22T17:57:44.426Z,12.75
2022-10-22T18:00:16.167Z,12.74
2022-10-22T18:02:45.758Z,12.70
2022-10-22T18:05:15.341Z,12.69
2022-10-22T18:07:45.134Z,12.68
2022-10-22T18:10:14.866Z,12.64
2022-10-22T18:12:49.565Z,12.55
2022-10-22T18:15:19.856Z,12.53
2022-10-22T18:17:50.350Z,12.53
2022-10-22T18:20:19.915Z,12.56
2022-10-22T18:22:54.521Z,12.53
2022-10-22T18:25:24.172Z,12.46
2022-10-22T18:27:55.179Z,12.35
2022-10-22T18:30:24.780Z,12.28
2022-10-22T18:32:54.272Z,12.30
2022-10-22T18:35:23.991Z,12.31
2022-10-22T18:37:53.525Z,12.37
2022-10-22T18:40:23.439Z,12.20
2022-10-22T18:42:53.228Z,12.17
2022-10-22T18:45:24.433Z,12.16
2022-10-22T18:47:54.027Z,12.22
2022-10-22T18:50:23.592Z,12.19
2022-10-22T18:52:53.247Z,12.18
2022-10-22T18:55:22.791Z,12.18
2022-10-22T18:57:52.508Z,12.23
2022-10-22T19:00:22.084Z,12.22
2022-10-22T19:02:53.128Z,12.11
2022-10-22T19:05:23.374Z,12.14
2022-10-22T19:07:53.061Z,12.12
2022-10-22T19:10:22.970Z,12.04
2022-10-22T19:12:53.271Z,11.96
2022-10-22T19:15:23.475Z,11.87
2022-10-22T19:17:55.948Z,11.85
2022-10-22T19:20:25.537Z,11.91
2022-10-22T19:22:56.597Z,11.95
2022-10-22T19:25:26.156Z,11.95
2022-10-22T19:27:55.710Z,11.99
2022-10-22T19:30:25.564Z,11.90
2022-10-22T19:32:56.447Z,11.83
2022-10-22T19:35:25.987Z,11.75
2022-10-22T19:37:55.463Z,11.79
2022-10-22T19:40:26.960Z,11.82
2022-10-22T19:42:56.484Z,11.74
2022-10-22T19:45:27.002Z,11.71
2022-10-22T19:47:58.171Z,11.64
2022-10-22T19:50:27.805Z,11.59
2022-10-22T19:52:59.679Z,11.44
2022-10-22T19:55:29.374Z,11.45
2022-10-22T19:57:59.071Z,11.52
2022-10-22T20:00:29.453Z,11.49
2022-10-22T20:03:00.337Z,11.37
2022-10-22T20:05:29.900Z,11.29
2022-10-22T20:07:59.939Z,11.36
2022-10-22T20:10:30.151Z,11.31
2022-10-22T20:13:00.483Z,11.26
2022-10-22T20:15:32.261Z,11.41
2022-10-22T20:18:03.352Z,11.43
2022-10-22T20:20:32.938Z,11.42
2022-10-22T20:23:04.496Z,11.45
2022-10-22T20:25:35.199Z,11.39
2022-10-22T20:28:06.144Z,11.44
2022-10-22T20:30:35.739Z,11.37
2022-10-22T20:33:06.696Z,11.34
2022-10-22T20:35:36.647Z,11.19
2022-10-22T20:38:06.210Z,11.33
2022-10-22T20:40:37.401Z,11.25
2022-10-22T20:43:09.511Z,11.11
2022-10-22T20:45:41.318Z,11.05
2022-10-22T20:48:13.146Z,11.12
2022-10-22T20:50:42.665Z,11.14
2022-10-22T20:53:16.033Z,11.11
2022-10-22T20:55:46.367Z,11.08
2022-10-22T20:58:17.724Z,11.09
2022-10-22T21:00:47.714Z,11.03
2022-10-22T21:03:18.610Z,10.99
2022-10-22T21:05:48.267Z,10.99
2022-10-22T21:08:18.245Z,11.04
2022-10-22T21:10:49.146Z,10.94
2022-10-22T21:13:19.563Z,10.99
2022-10-22T21:15:49.818Z,10.84
2022-10-22T21:18:20.675Z,10.89
2022-10-22T21:20:50.283Z,10.89
2022-10-22T21:23:19.860Z,10.88
2022-10-22T21:25:54.035Z,10.94
2022-10-22T21:28:23.728Z,10.95
2022-10-22T21:30:53.430Z,10.89
2022-10-22T21:33:24.281Z,10.95
2022-10-22T21:35:54.660Z,10.88
2022-10-22T21:38:25.026Z,10.83
2022-10-22T21:40:54.631Z,10.81
2022-10-22T21:43:24.093Z,10.71
2022-10-22T21:46:06.904Z,10.76
2022-10-22T21:48:40.420Z,10.78
2022-10-22T21:51:11.071Z,10.88
2022-10-22T21:53:41.005Z,10.87
2022-10-22T21:56:15.363Z,10.79
2022-10-22T21:58:44.803Z,10.76
2022-10-22T22:01:15.111Z,10.71
2022-10-22T22:03:46.797Z,10.69
2022-10-22T22:06:21.133Z,10.62
2022-10-22T22:08:52.526Z,10.60
2022-10-22T22:11:23.757Z,10.66
2022-10-22T22:13:54.053Z,10.54
2022-10-22T22:16:28.422Z,10.48
2022-10-22T22:19:00.882Z,10.52
2022-10-22T22:21:30.650Z,10.60
2022-10-22T22:24:00.333Z,10.70
2022-10-22T22:26:30.385Z,10.53
2022-10-22T22:29:00.385Z,10.52
2022-10-22T22:31:31.037Z,10.55
2022-10-22T22:34:02.817Z,10.43
2022-10-22T22:36:34.377Z,10.36
2022-10-22T22:39:04.434Z,10.46
2022-10-22T22:41:35.011Z,10.50
2022-10-22T22:44:04.895Z,10.44
2022-10-22T22:46:34.813Z,10.57
2022-10-22T22:49:06.023Z,10.33
2022-10-22T22:51:35.797Z,10.38
2022-10-22T22:54:05.355Z,10.45
2022-10-22T22:56:35.374Z,10.35
2022-10-22T22:59:06.056Z,10.38
2022-10-22T23:01:36.855Z,10.39
2022-10-22T23:04:08.860Z,10.34
2022-10-22T23:06:38.475Z,10.36
2022-10-22T23:09:09.590Z,10.36
2022-10-22T23:11:40.147Z,10.36
2022-10-22T23:14:13.737Z,10.34
2022-10-22T23:16:46.139Z,10.18
2022-10-22T23:19:17.850Z,10.18
2022-10-22T23:21:48.437Z,10.11
2022-10-22T23:24:19.236Z,10.15
2022-10-22T23:26:50.010Z,10.11
2022-10-22T23:29:20.981Z,10.16
2022-10-22T23:31:50.987Z,10.16
2022-10-22T23:34:22.701Z,10.03
2022-10-22T23:36:52.230Z,10.06
2022-10-22T23:39:23.376Z,10.05
2022-10-22T23:41:53.127Z,10.04
2022-10-22T23:44:23.560Z,10.09
2022-10-22T23:46:53.233Z,10.10
2022-10-22T23:49:24.182Z,10.07
2022-10-22T23:51:53.719Z,9.87
2022-10-22T23:54:23.196Z,9.84
2022-10-22T23:56:52.982Z,9.84
2022-10-22T23:59:22.494Z,9.91
